sensor_id;sensor_type;location;lat;lon;timestamp;pressure;altitude;pressure_sealevel;temperature
75658;BMP280;64255;49.892;17.884;2023-05-23T05:02:34;98377.97;;;14.72
75658;BMP280;64255;49.892;17.884;2023-05-23T05:05:21;98374.56;;;14.66
75658;BMP280;64255;49.892;17.884;2023-05-23T05:08:07;98373.09;;;15.18
75658;BMP280;64255;49.892;17.884;2023-05-23T05:10:54;98378.34;;;15.05
75658;BMP280;64255;49.892;17.884;2023-05-23T05:13:40;98380.28;;;14.51
75658;BMP280;64255;49.892;17.884;2023-05-23T05:16:27;98374.16;;;14.51
75658;BMP280;64255;49.892;17.884;2023-05-23T05:19:14;98379.91;;;14.78
75658;BMP280;64255;49.892;17.884;2023-05-23T05:22:01;98368.34;;;14.94
75658;BMP280;64255;49.892;17.884;2023-05-23T05:24:47;98361.38;;;15.10
75658;BMP280;64255;49.892;17.884;2023-05-23T05:27:34;98364.66;;;15.33
75658;BMP280;64255;49.892;17.884;2023-05-23T05:30:21;98360.22;;;15.66
75658;BMP280;64255;49.892;17.884;2023-05-23T05:33:08;98360.03;;;16.13
75658;BMP280;64255;49.892;17.884;2023-05-23T05:35:54;98369.44;;;16.07
75658;BMP280;64255;49.892;17.884;2023-05-23T05:38:40;98365.72;;;15.85
75658;BMP280;64255;49.892;17.884;2023-05-23T05:41:27;98376.22;;;15.89
75658;BMP280;64255;49.892;17.884;2023-05-23T05:44:13;98372.53;;;15.92
75658;BMP280;64255;49.892;17.884;2023-05-23T05:47:00;98367.91;;;16.11
75658;BMP280;64255;49.892;17.884;2023-05-23T05:49:46;98370.88;;;16.33
75658;BMP280;64255;49.892;17.884;2023-05-23T05:52:33;98356.09;;;16.58
75658;BMP280;64255;49.892;17.884;2023-05-23T05:55:19;98361.56;;;16.53
75658;BMP280;64255;49.892;17.884;2023-05-23T05:58:06;98360.97;;;16.79
75658;BMP280;64255;49.892;17.884;2023-05-23T06:00:54;98360.81;;;17.09
75658;BMP280;64255;49.892;17.884;2023-05-23T06:03:40;98365.66;;;17.43
75658;BMP280;64255;49.892;17.884;2023-05-23T06:06:27;98360.94;;;17.63
75658;BMP280;64255;49.892;17.884;2023-05-23T06:09:13;98351.28;;;17.94
75658;BMP280;64255;49.892;17.884;2023-05-23T06:12:00;98350.88;;;18.51
75658;BMP280;64255;49.892;17.884;2023-05-23T06:14:46;98348.03;;;18.36
75658;BMP280;64255;49.892;17.884;2023-05-23T06:17:33;98349.56;;;18.66
75658;BMP280;64255;49.892;17.884;2023-05-23T06:20:19;98348.69;;;19.26
75658;BMP280;64255;49.892;17.884;2023-05-23T06:23:05;98337.19;;;20.07
75658;BMP280;64255;49.892;17.884;2023-05-23T06:25:52;98345.81;;;20.34
75658;BMP280;64255;49.892;17.884;2023-05-23T06:28:38;98343.72;;;20.79
75658;BMP280;64255;49.892;17.884;2023-05-23T06:31:25;98330.84;;;20.87
75658;BMP280;64255;49.892;17.884;2023-05-23T06:34:11;98335.16;;;21.44
75658;BMP280;64255;49.892;17.884;2023-05-23T06:36:58;98332.31;;;21.19
75658;BMP280;64255;49.892;17.884;2023-05-23T06:39:44;98337.88;;;21.44
75658;BMP280;64255;49.892;17.884;2023-05-23T06:42:30;98332.22;;;21.50
75658;BMP280;64255;49.892;17.884;2023-05-23T06:45:17;98331.53;;;21.34
75658;BMP280;64255;49.892;17.884;2023-05-23T06:48:04;98330.06;;;21.56
75658;BMP280;64255;49.892;17.884;2023-05-23T06:50:51;98334.31;;;21.90
75658;BMP280;64255;49.892;17.884;2023-05-23T06:53:37;98331.28;;;21.70
75658;BMP280;64255;49.892;17.884;2023-05-23T06:56:24;98324.44;;;22.02
75658;BMP280;64255;49.892;17.884;2023-05-23T06:59:10;98320.38;;;21.70
75658;BMP280;64255;49.892;17.884;2023-05-23T07:01:57;98312.53;;;21.74
75658;BMP280;64255;49.892;17.884;2023-05-23T07:04:43;98312.91;;;21.71
75658;BMP280;64255;49.892;17.884;2023-05-23T07:07:29;98313.25;;;22.48
75658;BMP280;64255;49.892;17.884;2023-05-23T07:10:16;98310.69;;;21.85
75658;BMP280;64255;49.892;17.884;2023-05-23T07:13:02;98308.25;;;22.04
75658;BMP280;64255;49.892;17.884;2023-05-23T07:15:49;98292.75;;;22.15
75658;BMP280;64255;49.892;17.884;2023-05-23T07:18:35;98305.31;;;21.69
75658;BMP280;64255;49.892;17.884;2023-05-23T07:21:22;98309.28;;;22.17
75658;BMP280;64255;49.892;17.884;2023-05-23T07:24:08;98288.78;;;22.08
75658;BMP280;64255;49.892;17.884;2023-05-23T07:26:55;98296.25;;;22.07
75658;BMP280;64255;49.892;17.884;2023-05-23T07:29:41;98285.31;;;22.40
75658;BMP280;64255;49.892;17.884;2023-05-23T07:32:28;98283.31;;;22.41
75658;BMP280;64255;49.892;17.884;2023-05-23T07:35:15;98278.81;;;22.78
75658;BMP280;64255;49.892;17.884;2023-05-23T07:38:01;98285.50;;;23.02
75658;BMP280;64255;49.892;17.884;2023-05-23T07:40:48;98272.47;;;22.76
75658;BMP280;64255;49.892;17.884;2023-05-23T07:43:34;98264.56;;;23.23
75658;BMP280;64255;49.892;17.884;2023-05-23T07:46:21;98270.72;;;23.40
75658;BMP280;64255;49.892;17.884;2023-05-23T07:49:07;98262.00;;;21.89
75658;BMP280;64255;49.892;17.884;2023-05-23T07:51:54;98255.94;;;23.98
75658;BMP280;64255;49.892;17.884;2023-05-23T07:54:40;98251.94;;;23.27
75658;BMP280;64255;49.892;17.884;2023-05-23T07:57:27;98255.38;;;22.75
75658;BMP280;64255;49.892;17.884;2023-05-23T08:00:14;98247.53;;;22.37
75658;BMP280;64255;49.892;17.884;2023-05-23T08:03:01;98248.41;;;22.14
75658;BMP280;64255;49.892;17.884;2023-05-23T08:05:47;98251.47;;;22.18
75658;BMP280;64255;49.892;17.884;2023-05-23T08:08:35;98258.16;;;21.92
75658;BMP280;64255;49.892;17.884;2023-05-23T08:11:21;98249.06;;;22.73
75658;BMP280;64255;49.892;17.884;2023-05-23T08:14:08;98250.28;;;22.97
75658;BMP280;64255;49.892;17.884;2023-05-23T08:16:54;98250.59;;;23.18
75658;BMP280;64255;49.892;17.884;2023-05-23T08:19:41;98254.78;;;22.59
75658;BMP280;64255;49.892;17.884;2023-05-23T08:22:27;98253.16;;;23.16
75658;BMP280;64255;49.892;17.884;2023-05-23T08:25:14;98244.00;;;23.39
75658;BMP280;64255;49.892;17.884;2023-05-23T08:28:00;98253.78;;;23.42
75658;BMP280;64255;49.892;17.884;2023-05-23T08:30:47;98254.91;;;23.04
75658;BMP280;64255;49.892;17.884;2023-05-23T08:33:33;98249.34;;;22.34
75658;BMP280;64255;49.892;17.884;2023-05-23T08:36:20;98246.84;;;22.96
75658;BMP280;64255;49.892;17.884;2023-05-23T08:39:06;98243.75;;;23.27
75658;BMP280;64255;49.892;17.884;2023-05-23T08:41:53;98235.81;;;23.21
75658;BMP280;64255;49.892;17.884;2023-05-23T08:44:40;98236.66;;;23.42
75658;BMP280;64255;49.892;17.884;2023-05-23T08:47:28;98242.81;;;23.60
75658;BMP280;64255;49.892;17.884;2023-05-23T08:50:17;98239.94;;;23.40
75658;BMP280;64255;49.892;17.884;2023-05-23T08:53:05;98238.13;;;23.25
75658;BMP280;64255;49.892;17.884;2023-05-23T08:55:52;98238.06;;;23.60
75658;BMP280;64255;49.892;17.884;2023-05-23T08:58:40;98236.97;;;23.46
75658;BMP280;64255;49.892;17.884;2023-05-23T09:01:26;98237.22;;;23.40
75658;BMP280;64255;49.892;17.884;2023-05-23T09:04:14;98241.06;;;23.54
75658;BMP280;64255;49.892;17.884;2023-05-23T09:07:02;98234.19;;;23.63
75658;BMP280;64255;49.892;17.884;2023-05-23T09:09:49;98240.28;;;23.71
75658;BMP280;64255;49.892;17.884;2023-05-23T09:12:36;98233.75;;;23.84
75658;BMP280;64255;49.892;17.884;2023-05-23T09:15:23;98229.53;;;23.73
75658;BMP280;64255;49.892;17.884;2023-05-23T09:18:09;98218.63;;;23.83
75658;BMP280;64255;49.892;17.884;2023-05-23T09:20:56;98220.75;;;23.75
75658;BMP280;64255;49.892;17.884;2023-05-23T09:23:43;98219.03;;;24.26
75658;BMP280;64255;49.892;17.884;2023-05-23T09:26:29;98215.09;;;24.00
75658;BMP280;64255;49.892;17.884;2023-05-23T09:29:19;98219.13;;;24.46
75658;BMP280;64255;49.892;17.884;2023-05-23T09:32:14;98217.25;;;24.88
75658;BMP280;64255;49.892;17.884;2023-05-23T09:35:05;98214.75;;;25.21
75658;BMP280;64255;49.892;17.884;2023-05-23T09:37:52;98229.44;;;25.35
75658;BMP280;64255;49.892;17.884;2023-05-23T09:40:44;98222.59;;;25.15
75658;BMP280;64255;49.892;17.884;2023-05-23T09:43:31;98218.13;;;25.00
75658;BMP280;64255;49.892;17.884;2023-05-23T09:46:19;98223.59;;;24.90
75658;BMP280;64255;49.892;17.884;2023-05-23T09:49:16;98219.25;;;24.77
75658;BMP280;64255;49.892;17.884;2023-05-23T09:52:03;98219.53;;;24.62
75658;BMP280;64255;49.892;17.884;2023-05-23T09:54:49;98228.13;;;24.29
75658;BMP280;64255;49.892;17.884;2023-05-23T09:57:41;98226.59;;;23.62
75658;BMP280;64255;49.892;17.884;2023-05-23T10:00:28;98226.59;;;23.62
75658;BMP280;64255;49.892;17.884;2023-05-23T10:03:15;98229.72;;;23.13
75658;BMP280;64255;49.892;17.884;2023-05-23T10:09:12;98225.50;;;22.42
75658;BMP280;64255;49.892;17.884;2023-05-23T10:15:18;98229.78;;;22.88
75658;BMP280;64255;49.892;17.884;2023-05-23T10:18:17;98232.19;;;23.01
75658;BMP280;64255;49.892;17.884;2023-05-23T10:21:28;98229.06;;;23.05
75658;BMP280;64255;49.892;17.884;2023-05-23T10:24:16;98229.47;;;23.01
75658;BMP280;64255;49.892;17.884;2023-05-23T10:27:03;98236.44;;;23.30
75658;BMP280;64255;49.892;17.884;2023-05-23T10:29:51;98231.72;;;23.30
75658;BMP280;64255;49.892;17.884;2023-05-23T10:32:39;98231.25;;;23.51
75658;BMP280;64255;49.892;17.884;2023-05-23T10:36:03;98240.91;;;23.80
75658;BMP280;64255;49.892;17.884;2023-05-23T10:45:57;98239.41;;;24.43
75658;BMP280;64255;49.892;17.884;2023-05-23T10:48:44;98247.81;;;24.94
75658;BMP280;64255;49.892;17.884;2023-05-23T10:51:37;98289.22;;;24.51
75658;BMP280;64255;49.892;17.884;2023-05-23T10:54:24;98295.00;;;23.54
75658;BMP280;64255;49.892;17.884;2023-05-23T10:57:15;98285.16;;;22.38
75658;BMP280;64255;49.892;17.884;2023-05-23T11:00:02;98291.00;;;22.35
75658;BMP280;64255;49.892;17.884;2023-05-23T11:02:57;98299.28;;;22.11
75658;BMP280;64255;49.892;17.884;2023-05-23T11:05:52;98295.47;;;21.82
75658;BMP280;64255;49.892;17.884;2023-05-23T11:08:40;98289.72;;;21.54
75658;BMP280;64255;49.892;17.884;2023-05-23T11:17:32;98289.13;;;21.00
75658;BMP280;64255;49.892;17.884;2023-05-23T11:20:20;98295.28;;;21.08
75658;BMP280;64255;49.892;17.884;2023-05-23T11:23:11;98302.50;;;21.36
75658;BMP280;64255;49.892;17.884;2023-05-23T11:25:58;98311.00;;;21.56
75658;BMP280;64255;49.892;17.884;2023-05-23T11:28:58;98329.19;;;21.38
75658;BMP280;64255;49.892;17.884;2023-05-23T11:31:44;98317.34;;;20.35
75658;BMP280;64255;49.892;17.884;2023-05-23T11:34:31;98306.84;;;19.43
75658;BMP280;64255;49.892;17.884;2023-05-23T11:37:18;98300.47;;;18.90
75658;BMP280;64255;49.892;17.884;2023-05-23T11:40:30;98301.13;;;19.54
75658;BMP280;64255;49.892;17.884;2023-05-23T11:43:17;98299.97;;;19.50
75658;BMP280;64255;49.892;17.884;2023-05-23T11:46:07;98299.00;;;19.68
75658;BMP280;64255;49.892;17.884;2023-05-23T11:48:54;98307.09;;;19.97
75658;BMP280;64255;49.892;17.884;2023-05-23T11:51:40;98307.53;;;20.17
75658;BMP280;64255;49.892;17.884;2023-05-23T11:54:28;98313.50;;;20.07
75658;BMP280;64255;49.892;17.884;2023-05-23T11:57:15;98321.41;;;19.97
75658;BMP280;64255;49.892;17.884;2023-05-23T12:00:01;98321.28;;;20.11
75658;BMP280;64255;49.892;17.884;2023-05-23T12:02:48;98322.66;;;19.96
75658;BMP280;64255;49.892;17.884;2023-05-23T12:05:34;98314.09;;;19.77
75658;BMP280;64255;49.892;17.884;2023-05-23T12:08:21;98321.31;;;19.82
75658;BMP280;64255;49.892;17.884;2023-05-23T12:11:07;98320.38;;;19.72
75658;BMP280;64255;49.892;17.884;2023-05-23T12:13:54;98299.41;;;19.72
75658;BMP280;64255;49.892;17.884;2023-05-23T12:16:44;98314.44;;;19.44
75658;BMP280;64255;49.892;17.884;2023-05-23T12:19:30;98308.94;;;19.08
75658;BMP280;64255;49.892;17.884;2023-05-23T12:22:23;98304.03;;;19.06
75658;BMP280;64255;49.892;17.884;2023-05-23T12:25:10;98305.06;;;19.24
75658;BMP280;64255;49.892;17.884;2023-05-23T12:27:56;98306.69;;;19.49
75658;BMP280;64255;49.892;17.884;2023-05-23T12:30:43;98291.44;;;19.82
75658;BMP280;64255;49.892;17.884;2023-05-23T12:33:29;98290.78;;;19.89
75658;BMP280;64255;49.892;17.884;2023-05-23T12:36:26;98293.38;;;20.18
75658;BMP280;64255;49.892;17.884;2023-05-23T12:39:12;98281.13;;;20.40
75658;BMP280;64255;49.892;17.884;2023-05-23T12:42:09;98287.22;;;20.10
75658;BMP280;64255;49.892;17.884;2023-05-23T12:44:55;98281.84;;;20.41
75658;BMP280;64255;49.892;17.884;2023-05-23T12:47:43;98279.63;;;20.16
75658;BMP280;64255;49.892;17.884;2023-05-23T12:50:29;98281.78;;;20.18
75658;BMP280;64255;49.892;17.884;2023-05-23T12:53:16;98279.63;;;20.24
75658;BMP280;64255;49.892;17.884;2023-05-23T12:56:02;98275.53;;;20.61
75658;BMP280;64255;49.892;17.884;2023-05-23T12:58:49;98278.94;;;20.46
75658;BMP280;64255;49.892;17.884;2023-05-23T13:01:35;98279.38;;;20.81
75658;BMP280;64255;49.892;17.884;2023-05-23T13:04:22;98272.44;;;20.88
75658;BMP280;64255;49.892;17.884;2023-05-23T13:07:08;98269.72;;;20.57
75658;BMP280;64255;49.892;17.884;2023-05-23T13:09:56;98269.00;;;20.80
75658;BMP280;64255;49.892;17.884;2023-05-23T13:12:42;98267.56;;;20.94
75658;BMP280;64255;49.892;17.884;2023-05-23T13:15:28;98266.28;;;20.57
75658;BMP280;64255;49.892;17.884;2023-05-23T13:18:16;98273.50;;;20.46
75658;BMP280;64255;49.892;17.884;2023-05-23T13:21:03;98273.16;;;20.42
75658;BMP280;64255;49.892;17.884;2023-05-23T13:23:49;98269.19;;;20.51
75658;BMP280;64255;49.892;17.884;2023-05-23T13:26:36;98275.13;;;20.34
75658;BMP280;64255;49.892;17.884;2023-05-23T13:29:22;98282.19;;;20.22
75658;BMP280;64255;49.892;17.884;2023-05-23T13:32:09;98272.81;;;20.54
75658;BMP280;64255;49.892;17.884;2023-05-23T13:34:55;98276.13;;;20.00
75658;BMP280;64255;49.892;17.884;2023-05-23T13:37:42;98275.63;;;20.17
75658;BMP280;64255;49.892;17.884;2023-05-23T13:40:28;98271.34;;;20.45
75658;BMP280;64255;49.892;17.884;2023-05-23T13:43:15;98262.09;;;20.48
75658;BMP280;64255;49.892;17.884;2023-05-23T13:46:01;98260.81;;;20.33
75658;BMP280;64255;49.892;17.884;2023-05-23T13:48:48;98277.06;;;20.18
75658;BMP280;64255;49.892;17.884;2023-05-23T13:51:34;98274.03;;;20.37
75658;BMP280;64255;49.892;17.884;2023-05-23T13:54:21;98292.47;;;20.08
75658;BMP280;64255;49.892;17.884;2023-05-23T13:57:07;98290.97;;;19.99
75658;BMP280;64255;49.892;17.884;2023-05-23T13:59:54;98283.25;;;20.11
75658;BMP280;64255;49.892;17.884;2023-05-23T14:02:40;98290.47;;;20.08
75658;BMP280;64255;49.892;17.884;2023-05-23T14:05:27;98284.19;;;20.21
75658;BMP280;64255;49.892;17.884;2023-05-23T14:08:13;98281.09;;;20.25
75658;BMP280;64255;49.892;17.884;2023-05-23T14:11:00;98291.44;;;20.26
75658;BMP280;64255;49.892;17.884;2023-05-23T14:13:46;98284.00;;;20.27
75658;BMP280;64255;49.892;17.884;2023-05-23T14:16:32;98290.31;;;20.14
75658;BMP280;64255;49.892;17.884;2023-05-23T14:19:19;98298.59;;;19.64
75658;BMP280;64255;49.892;17.884;2023-05-23T14:22:06;98298.69;;;19.51
75658;BMP280;64255;49.892;17.884;2023-05-23T14:24:52;98314.84;;;19.56
75658;BMP280;64255;49.892;17.884;2023-05-23T14:27:39;98325.09;;;19.42
75658;BMP280;64255;49.892;17.884;2023-05-23T14:30:25;98330.50;;;19.42
75658;BMP280;64255;49.892;17.884;2023-05-23T14:33:12;98329.22;;;19.36
75658;BMP280;64255;49.892;17.884;2023-05-23T14:35:58;98329.00;;;19.34
75658;BMP280;64255;49.892;17.884;2023-05-23T14:38:45;98326.34;;;19.41
75658;BMP280;64255;49.892;17.884;2023-05-23T14:41:31;98328.63;;;19.58
75658;BMP280;64255;49.892;17.884;2023-05-23T14:44:18;98321.41;;;19.61
75658;BMP280;64255;49.892;17.884;2023-05-23T14:47:04;98319.78;;;19.58
75658;BMP280;64255;49.892;17.884;2023-05-23T14:49:51;98306.59;;;19.70
75658;BMP280;64255;49.892;17.884;2023-05-23T14:52:37;98308.75;;;19.63
75658;BMP280;64255;49.892;17.884;2023-05-23T14:55:24;98320.53;;;19.66
75658;BMP280;64255;49.892;17.884;2023-05-23T14:58:10;98320.50;;;19.30
75658;BMP280;64255;49.892;17.884;2023-05-23T15:00:57;98313.84;;;19.38
75658;BMP280;64255;49.892;17.884;2023-05-23T15:03:43;98307.19;;;19.47
75658;BMP280;64255;49.892;17.884;2023-05-23T15:06:30;98303.63;;;19.52
75658;BMP280;64255;49.892;17.884;2023-05-23T15:09:17;98294.25;;;19.32
75658;BMP280;64255;49.892;17.884;2023-05-23T15:12:04;98295.38;;;19.37
75658;BMP280;64255;49.892;17.884;2023-05-23T15:14:50;98289.84;;;19.50
75658;BMP280;64255;49.892;17.884;2023-05-23T15:17:37;98293.53;;;19.60
75658;BMP280;64255;49.892;17.884;2023-05-23T15:20:23;98291.91;;;19.65
75658;BMP280;64255;49.892;17.884;2023-05-23T15:23:10;98292.75;;;19.52
75658;BMP280;64255;49.892;17.884;2023-05-23T15:25:56;98288.72;;;19.45
75658;BMP280;64255;49.892;17.884;2023-05-23T15:28:43;98293.22;;;19.35
75658;BMP280;64255;49.892;17.884;2023-05-23T15:31:29;98292.66;;;19.37
75658;BMP280;64255;49.892;17.884;2023-05-23T15:34:16;98295.19;;;19.35
75658;BMP280;64255;49.892;17.884;2023-05-23T15:37:02;98296.91;;;19.24
75658;BMP280;64255;49.892;17.884;2023-05-23T15:39:49;98297.63;;;19.17
75658;BMP280;64255;49.892;17.884;2023-05-23T15:42:35;98292.97;;;19.04
75658;BMP280;64255;49.892;17.884;2023-05-23T15:45:22;98290.47;;;19.06
75658;BMP280;64255;49.892;17.884;2023-05-23T15:48:08;98291.06;;;19.13
75658;BMP280;64255;49.892;17.884;2023-05-23T15:50:55;98283.84;;;19.15
75658;BMP280;64255;49.892;17.884;2023-05-23T15:53:41;98285.66;;;19.13
75658;BMP280;64255;49.892;17.884;2023-05-23T15:56:28;98289.81;;;19.42
75658;BMP280;64255;49.892;17.884;2023-05-23T15:59:14;98291.00;;;19.34
75658;BMP280;64255;49.892;17.884;2023-05-23T16:02:01;98292.75;;;19.52
75658;BMP280;64255;49.892;17.884;2023-05-23T16:04:47;98290.88;;;19.39
75658;BMP280;64255;49.892;17.884;2023-05-23T16:07:34;98295.28;;;19.50
75658;BMP280;64255;49.892;17.884;2023-05-23T16:10:20;98294.56;;;19.50
75658;BMP280;64255;49.892;17.884;2023-05-23T16:13:07;98290.34;;;19.41
75658;BMP280;64255;49.892;17.884;2023-05-23T16:15:53;98292.16;;;19.46
75658;BMP280;64255;49.892;17.884;2023-05-23T16:18:40;98292.25;;;19.33
75658;BMP280;64255;49.892;17.884;2023-05-23T16:21:26;98305.28;;;19.05
75658;BMP280;64255;49.892;17.884;2023-05-23T16:24:13;98314.28;;;19.21
75658;BMP280;64255;49.892;17.884;2023-05-23T16:26:59;98323.78;;;19.15
75658;BMP280;64255;49.892;17.884;2023-05-23T16:29:46;98318.13;;;19.05
75658;BMP280;64255;49.892;17.884;2023-05-23T16:32:33;98321.13;;;18.94
75658;BMP280;64255;49.892;17.884;2023-05-23T16:35:20;98321.06;;;19.07
75658;BMP280;64255;49.892;17.884;2023-05-23T16:38:06;98331.28;;;19.01
75658;BMP280;64255;49.892;17.884;2023-05-23T16:40:53;98337.56;;;19.17
75658;BMP280;64255;49.892;17.884;2023-05-23T16:43:39;98340.31;;;18.96
75658;BMP280;64255;49.892;17.884;2023-05-23T16:46:26;98336.06;;;18.87
75658;BMP280;64255;49.892;17.884;2023-05-23T16:49:12;98339.44;;;18.80
75658;BMP280;64255;49.892;17.884;2023-05-23T16:51:59;98330.41;;;18.64
75658;BMP280;64255;49.892;17.884;2023-05-23T16:54:45;98340.25;;;18.53
75658;BMP280;64255;49.892;17.884;2023-05-23T16:57:32;98327.97;;;18.73
